Lille-Lesquin Airport

LFQQ · Hauts-de-France, Francia

2 de octubre de 2022

Hora Código Tiempo Temp. Visibilidad Cielo nuboso Viento METAR/SPECI
21:30
V
11 °C 10 km+ - 280° 280° 4 kt METAR LFQQ 021930Z AUTO 28004KT CAVOK 11/10 Q1025 BECMG 1200 BR
21:00
V
11 °C 10 km+ - 310° 310° 4 kt METAR LFQQ 021900Z AUTO 31004KT CAVOK 11/10 Q1024 NOSIG
20:30
V
12 °C 10 km+ - 320° 320° 5 kt METAR LFQQ 021830Z AUTO 32005KT CAVOK 12/10 Q1024 NOSIG
20:00
V
12 °C 10 km+ - 300° 300° 4 kt METAR LFQQ 021800Z AUTO 30004KT CAVOK 12/10 Q1024 NOSIG
19:30
V
13 °C 10 km+ - 310° 310° 4 kt METAR LFQQ 021730Z AUTO 31004KT 290V010 CAVOK 13/11 Q1023 NOSIG
19:00
V
15 °C 10 km+ - 330° 330° 6 kt METAR LFQQ 021700Z AUTO 33006KT CAVOK 15/11 Q1023 NOSIG
18:30
V
15 °C 10 km+ - 290° 290° 5 kt METAR LFQQ 021630Z AUTO 29005KT CAVOK 15/12 Q1022 NOSIG
18:00
M
15 °C 10 km+ 1.500 ft 280° 280° 6 kt METAR LFQQ 021600Z AUTO 28006KT 9999 BKN015 BKN021 BKN030 15/14 Q1022 TEMPO 3000 RA BKN007 SCT030CB
17:30
M
15 °C 10 km+ 1.500 ft 260° 260° 4 kt METAR LFQQ 021530Z AUTO 26004KT 230V300 9999 -RA FEW010 BKN015 BKN020 15/14 Q1021 NOSIG
17:00
V
16 °C 10 km+ 4.900 ft 230° 230° 6 kt METAR LFQQ 021500Z AUTO 23006KT 200V260 9999 FEW009 SCT030 BKN049 16/14 Q1021 NOSIG
16:30
I
15 °C 10 km+ 700 ft 270° 270° 5 kt METAR LFQQ 021430Z AUTO 27005KT 250V310 9999 BKN007 BKN014 BKN020 15/14 Q1021 BECMG SCT015 BKN080
16:00
I
15 °C 10 km+ 600 ft 280° 280° 5 kt METAR LFQQ 021400Z AUTO 28005KT 9999 BKN006 OVC020 15/14 Q1021 TEMPO 3000 RA BKN007 SCT030CB
15:30
I
14 °C 10 km+ 500 ft 280° 280° 6 kt METAR LFQQ 021330Z AUTO 28006KT 9999 BKN005 OVC035 14/14 Q1020 TEMPO 3000 RA BKN007 SCT030CB
15:00
I
14 °C 10 km+ 500 ft 250° 250° 6 kt METAR LFQQ 021300Z AUTO 25006KT 9999 -RA OVC005/// //////TCU 14/13 Q1020 TEMPO 3000 RA BKN007 SCT030CB
14:30
M
14 °C 10 km+ 2.100 ft 240° 240° 6 kt METAR LFQQ 021230Z AUTO 24006KT 9999 -RA SCT006/// BKN021/// BKN066/// ///TCU 14/13 Q1020 TEMPO 3000 RA BKN007 SCT030CB
14:00
V
13 °C 8 km 7.000 ft 250° 250° 6 kt METAR LFQQ 021200Z AUTO 25006KT 8000 -RA FEW008/// SCT019/// BKN070/// //////CB 13/13 Q1020 TEMPO 3000 RA BKN007 SCT030TCU
13:30
V
13 °C 10 km+ 7.200 ft 250° 250° 6 kt METAR LFQQ 021130Z AUTO 25006KT 9999 -RA FEW008/// SCT058/// OVC072/// ///TCU 13/13 Q1020 TEMPO 3000 RA BKN007 OVC080
13:00
V
14 °C 10 km+ 6.600 ft 230° 230° 6 kt METAR LFQQ 021100Z AUTO 23006KT 9999 -RA FEW010/// SCT056/// BKN066/// //////TCU 14/12 Q1020 TEMPO 3000 RA BKN007 OVC080
12:30
V
14 °C 10 km+ 7.000 ft 220° 220° 3 kt METAR LFQQ 021030Z AUTO 22003KT 9999 -RA FEW012/// SCT052/// BKN070/// //////TCU 14/13 Q1019 TEMPO 3000 RA BKN007 OVC080
12:00
V
14 °C 10 km+ 6.400 ft 220° 220° 5 kt METAR LFQQ 021000Z AUTO 22005KT 9999 -RA FEW047/// BKN064/// BKN078/// //////TCU 14/13 Q1019 TEMPO 3000 RA BKN007 OVC080
11:30
V
14 °C 10 km+ 6.600 ft 220° 220° 5 kt METAR LFQQ 020930Z AUTO 22005KT 9999 -RA FEW037/// SCT049/// BKN066/// //////TCU 14/13 Q1019 TEMPO 3000 RA BKN007 OVC080
11:00
V
14 °C 10 km+ - 250° 250° 5 kt METAR LFQQ 020900Z AUTO 25005KT 9999 -RA ///TCU 14/13 Q1019 TEMPO 3000 RA BKN007 OVC080
10:30
V
13 °C 10 km+ - 240° 240° 5 kt METAR LFQQ 020830Z AUTO 24005KT 9999 -RA //////TCU 13/13 Q1019 TEMPO 3000 RA BKN007 OVC080
10:00
V
13 °C 9 km - 230° 230° 7 kt METAR LFQQ 020800Z AUTO 23007KT 9000 -RA //////TCU 13/13 Q1018 TEMPO 3000 RA BKN007 OVC080
09:30
V
13 °C 9 km 6.200 ft 210° 210° 4 kt METAR LFQQ 020730Z AUTO 21004KT 9000 -RA FEW005 BKN062 OVC090 13/13 Q1018 TEMPO 3000 RA BKN007 OVC080
09:00
V
13 °C 10 km+ 7.000 ft 200° 200° 3 kt METAR LFQQ 020700Z AUTO 20003KT 9999 -RA FEW003/// OVC070/// //////TCU 13/13 Q1018 TEMPO 3000 RA BKN007 OVC080
08:30
V
13 °C 10 km+ - 190° 190° 5 kt METAR LFQQ 020630Z AUTO 19005KT 9999 -RA //////TCU 13/13 Q1018 TEMPO 3000 RA BKN007 OVC080
08:00
V
13 °C 10 km+ 6.400 ft 220° 220° 6 kt METAR LFQQ 020600Z AUTO 22006KT 9999 FEW035 OVC064 13/13 Q1018 TEMPO 4000 -RA BKN007 BKN100
07:30
V
13 °C 10 km+ 6.000 ft 230° 230° 7 kt METAR LFQQ 020530Z AUTO 23007KT 9999 -RA FEW026 BKN060 OVC076 13/13 Q1017 TEMPO 4000 -RA BKN007 BKN100
07:00
V
13 °C 10 km+ 6.000 ft 230° 230° 7 kt METAR LFQQ 020500Z AUTO 23007KT 9999 -DZ FEW026 OVC060 13/13 Q1017 TEMPO 4000 -RA BKN007 BKN100
06:30
V
13 °C 10 km+ - 230° 230° 8 kt METAR LFQQ 020430Z AUTO 23008KT 9999 -RA NSC 13/12 Q1017 TEMPO 4000 -RA BKN007 BKN100
06:00
V
14 °C 10 km+ - 240° 240° 9 kt METAR LFQQ 020400Z AUTO 24009KT 9999 -RA ///TCU 14/13 Q1017 TEMPO 4000 -RA BKN007 BKN100
05:30
V
14 °C 10 km+ 7.800 ft 230° 230° 10 kt METAR LFQQ 020330Z AUTO 23010KT 9999 -RA FEW016 OVC078 14/13 Q1017 TEMPO 4000 -RA BKN007 BKN100
05:00
V
14 °C 10 km+ 8.400 ft 220° 220° 9 kt METAR LFQQ 020300Z AUTO 22009KT 9999 -RA FEW021/// SCT029/// OVC084/// //////TCU 14/13 Q1017 TEMPO 4000 -RA BKN007 BKN100
04:30
V
14 °C 10 km+ 9.000 ft 220° 220° 8 kt METAR LFQQ 020230Z AUTO 22008KT 9999 -RA FEW014/// SCT078/// OVC090/// ///TCU 14/13 Q1017 TEMPO 4000 -RA BKN007 BKN100
04:00
V
14 °C 10 km+ 7.000 ft 230° 230° 9 kt METAR LFQQ 020200Z AUTO 23009KT 9999 -RA FEW019/// SCT052/// BKN070/// ///TCU 14/13 Q1017 TEMPO 4000 -RA BKN007 BKN100
03:30
V
15 °C 10 km+ 9.000 ft 230° 230° 11 kt METAR LFQQ 020130Z AUTO 23011KT 9999 -RA FEW042/// SCT076/// OVC090/// //////TCU 15/13 Q1016 TEMPO 4000 -RA BKN007 BKN100
03:00
V
15 °C 10 km+ 7.200 ft 230° 230° 11 kt METAR LFQQ 020100Z AUTO 23011KT 9999 -RA FEW012/// SCT054/// BKN072/// //////TCU 15/14 Q1016 TEMPO 3000 SHRA
02:30
M
15 °C 10 km+ 1.400 ft 240° 240° 9 kt METAR LFQQ 020030Z AUTO 24009KT 9999 BKN014/// BKN020/// BKN046/// ///CB 15/13 Q1016 TEMPO 3000 SHRA BKN020TCU
02:00
V
15 °C 10 km+ 9.800 ft 230° 230° 10 kt METAR LFQQ 020000Z AUTO 23010KT 9999 FEW019/// SCT037/// OVC098/// ///TCU 15/13 Q1016 TEMPO 3000 SHRA
01:30
V
15 °C 10 km+ - 220° 220° 11 kt METAR LFQQ 012330Z AUTO 22011KT 9999 -RA //////TCU 15/13 Q1016 TEMPO 3000 SHRA
01:00
V
15 °C 10 km+ 12.000 ft 220° 220° 10 kt METAR LFQQ 012300Z AUTO 22010KT 9999 FEW026 BKN120 15/13 Q1016 TEMPO 3000 SHRA BKN030TCU
00:30
M
15 °C 10 km+ 2.200 ft 220° 220° 10 kt METAR LFQQ 012230Z AUTO 22010KT 9999 BKN022 BKN027 BKN140 15/13 Q1016 TEMPO 3000 SHRA BKN030TCU
00:00
V
15 °C 10 km+ 15.000 ft 220° 220° 11 kt METAR LFQQ 012200Z AUTO 22011KT 9999 FEW025 BKN150 OVC170 15/13 Q1015 NOSIG

1 de octubre de 2022

Hora Código Tiempo Temp. Visibilidad Cielo nuboso Viento METAR/SPECI
23:30
V
15 °C 10 km+ - 220° 220° 10 kt METAR LFQQ 012130Z AUTO 22010KT CAVOK 15/13 Q1015 NOSIG
23:00
V
15 °C 10 km+ 16.000 ft 230° 230° 9 kt METAR LFQQ 012100Z AUTO 23009KT 9999 FEW024 BKN160 BKN190 15/13 Q1015 NOSIG
22:30
M
16 °C 10 km+ 2.300 ft 230° 230° 10 kt METAR LFQQ 012030Z AUTO 23010KT 9999 BKN023 BKN048 BKN170 16/13 Q1015 NOSIG
22:00
V
15 °C 10 km+ 20.000 ft 230° 230° 10 kt METAR LFQQ 012000Z AUTO 23010KT 9999 FEW032 SCT080 OVC200 15/13 Q1014 NOSIG
21:30
M
16 °C 10 km+ 2.300 ft 230° 230° 9 kt METAR LFQQ 011930Z AUTO 23009KT 9999 BKN023 BKN078 BKN200 16/12 Q1014 NOSIG
21:00
M
16 °C 10 km+ 2.300 ft 230° 230° 9 kt METAR LFQQ 011900Z AUTO 23009KT 9999 BKN023 BKN074 OVC220 16/13 Q1014 NOSIG
20:30
M
16 °C 10 km+ 2.500 ft 230° 230° 11 kt METAR LFQQ 011830Z AUTO 23011KT 9999 BKN025 16/13 Q1013 NOSIG
20:00
M
17 °C 10 km+ 2.700 ft 240° 240° 10 kt METAR LFQQ 011800Z AUTO 24010KT 9999 BKN027 BKN045 BKN056 17/13 Q1013 NOSIG
19:30
M
17 °C 10 km+ 2.800 ft 250° 250° 10 kt METAR LFQQ 011730Z AUTO 25010KT 9999 BKN028 BKN033 OVC140 17/12 Q1013 NOSIG
19:00
V
17 °C 10 km+ 3.100 ft 250° 250° 12 kt METAR LFQQ 011700Z AUTO 25012KT 9999 FEW026 BKN031 BKN058 17/12 Q1012 TEMPO 28015G25KT
18:30
V
18 °C 10 km+ 3.100 ft 240° 240° 14 kt METAR LFQQ 011630Z AUTO 24014KT 9999 BKN031 BKN037 BKN047 18/11 Q1012 NOSIG
18:00
V
18 °C 10 km+ 3.400 ft 250° 250° 15 kt METAR LFQQ 011600Z AUTO 25015KT 9999 BKN034 BKN041 BKN054 18/11 Q1011 TEMPO 26015G25KT
17:30
V
19 °C 10 km+ 3.800 ft 260° 260° 15 kt METAR LFQQ 011530Z AUTO 26015KT 9999 BKN038/// OVC130/// //////TCU 19/11 Q1011 TEMPO 26015G25KT BECMG SCT020
17:00
V
19 °C 10 km+ 14.000 ft 260° 260° 17 kt METAR LFQQ 011500Z AUTO 26017KT 9999 SCT043/// OVC140/// ///TCU 19/10 Q1011 TEMPO 26015G25KT BECMG SCT020
16:30
V
20 °C 10 km+ 14.000 ft 250° 250° 20 kt METAR LFQQ 011430Z AUTO 25020KT 9999 SCT045 SCT054 BKN140 20/10 Q1010 TEMPO 26015G25KT
16:00
V
20 °C 10 km+ 6.000 ft 260° 260° 21 kt METAR LFQQ 011400Z AUTO 26021KT 9999 FEW039 SCT048 BKN060 20/10 Q1010 TEMPO 26015G25KT
15:30
V
20 °C 10 km+ 4.100 ft 260° 260° 21 kt METAR LFQQ 011330Z AUTO 26021KT 9999 BKN041 BKN048 BKN054 20/11 Q1009 TEMPO 26015G25KT
15:00
V
20 °C 10 km+ - 260° 260° 19 kt METAR LFQQ 011300Z AUTO 26019KT 9999 SCT044 20/11 Q1009 TEMPO 26015G25KT
14:30
V
20 °C 10 km+ 4.800 ft 260° 260° 19 kt METAR LFQQ 011230Z AUTO 26019KT 9999 FEW039 BKN048 20/09 Q1009 TEMPO 26015G25KT
14:00
V
19 °C 10 km+ 4.400 ft 270° 270° 16 kt METAR LFQQ 011200Z AUTO 27016KT 240V300 9999 SCT037 BKN044 BKN054 19/11 Q1008 TEMPO 26015G25KT
13:30
V
20 °C 10 km+ 5.400 ft 270° 270° 17 kt METAR LFQQ 011130Z AUTO 27017KT 9999 FEW034 SCT044 BKN054 20/11 Q1008 TEMPO 26015G25KT
13:00
V
20 °C 10 km+ 3.300 ft 260° 260° 19 kt METAR LFQQ 011100Z AUTO 26019KT 9999 BKN033 BKN042 BKN052 20/11 Q1008 TEMPO 26015G25KT 3000 SHRA BKN020CB
12:30
V
19 °C 10 km+ 3.700 ft 260° 260° 20 kt METAR LFQQ 011030Z AUTO 26020KT 9999 FEW031 BKN037 BKN043 19/11 Q1007 TEMPO 26015G25KT 3000 SHRA BKN020CB
12:00
V
18 °C 10 km+ - 260° 260° 18 kt METAR LFQQ 011000Z AUTO 26018KT 9999 FEW029 18/12 Q1007 TEMPO 28015G25KT 3000 SHRA BKN020CB
11:30
V
18 °C 10 km+ 4.300 ft 260° 260° 17 kt METAR LFQQ 010930Z AUTO 26017KT 9999 SCT025 SCT032 BKN043 18/12 Q1007 TEMPO 28015G25KT 3000 SHRA BKN020CB
11:00
V
17 °C 10 km+ - 250° 250° 15 kt METAR LFQQ 010900Z AUTO 25015KT 9999 SCT023 17/13 Q1006 TEMPO 28015G25KT 3000 SHRA BKN020CB
10:30
V
17 °C 10 km+ - 260° 260° 14 kt METAR LFQQ 010830Z AUTO 26014KT 9999 FEW023 17/13 Q1006 TEMPO 28015G25KT 3000 SHRA BKN020CB
10:00
V
16 °C 10 km+ - 260° 260° 13 kt METAR LFQQ 010800Z AUTO 26013KT CAVOK 16/13 Q1006 TEMPO 28015G25KT 3000 SHRA BKN020CB
09:30
V
15 °C 10 km+ - 240° 240° 8 kt METAR LFQQ 010730Z AUTO 24008KT CAVOK 15/13 Q1005 TEMPO 28015G25KT 3000 SHRA BKN020CB
09:00
V
14 °C 10 km+ - 220° 220° 7 kt METAR LFQQ 010700Z AUTO 22007KT CAVOK 14/13 Q1005 BECMG RA
08:30
V
14 °C 10 km+ - 230° 230° 8 kt METAR LFQQ 010630Z AUTO 23008KT CAVOK 14/13 Q1004 BECMG RA
08:00
V
14 °C 10 km+ - 230° 230° 9 kt METAR LFQQ 010600Z AUTO 23009KT 9999 FEW019 SCT180 14/13 Q1004 BECMG RA
07:30
M
14 °C 10 km+ 2.000 ft 230° 230° 9 kt METAR LFQQ 010530Z AUTO 23009KT 9999 FEW011 BKN020 BKN052 14/13 Q1003 NOSIG
07:00
M
14 °C 10 km+ 1.400 ft 210° 210° 9 kt METAR LFQQ 010500Z AUTO 21009KT 9999 BKN014 OVC019 14/13 Q1003 BECMG SCT030
06:30
M
14 °C 10 km+ 1.900 ft 200° 200° 8 kt METAR LFQQ 010430Z AUTO 20008KT 9999 SCT009 BKN019 OVC170 14/13 Q1002 NOSIG
06:00
I
14 °C 10 km+ 700 ft 260° 260° 4 kt METAR LFQQ 010400Z AUTO 26004KT 160V300 9999 BKN007 BKN012 OVC017 14/13 Q1002 BECMG SCT030
05:30
M
14 °C 10 km+ 1.200 ft 210° 210° 15 kt METAR LFQQ 010330Z AUTO 21015KT 9999 BKN012 OVC017 14/13 Q1002 BECMG SCT030
05:00
M
14 °C 10 km+ 1.300 ft 200° 200° 14 kt METAR LFQQ 010300Z AUTO 20014KT 9999 OVC013 14/12 Q1002 BECMG SCT030
04:30
I
13 °C 10 km+ 900 ft 200° 200° 17 - 28 kt METAR LFQQ 010230Z AUTO 20017G28KT 9999 BKN009/// BKN016/// OVC021/// //////TCU 13/12 Q1002 BECMG 25012KT SCT030
04:00
I
13 °C 10 km+ 800 ft 190° 190° 18 kt METAR LFQQ 010200Z AUTO 19018KT 9999 BKN008 BKN012 OVC021 13/12 Q1002 BECMG 25012KT SCT030
03:30
I
12 °C 10 km+ 800 ft 190° 190° 19 kt METAR LFQQ 010130Z AUTO 19019KT 9999 BKN008/// BKN014/// OVC021/// //////CB 12/12 Q1001 BECMG 25012KT SCT030
03:00
I
12 °C 10 km+ 800 ft 190° 190° 20 kt METAR LFQQ 010100Z AUTO 19020KT 9999 -RA OVC008/// //////CB 12/11 Q1002 TEMPO 3000 BECMG 25012KT SCT030
02:30
I
12 °C 10 km+ 800 ft 180° 180° 21 kt METAR LFQQ 010030Z AUTO 18021KT 9999 BKN008 OVC013 12/11 Q1002 TEMPO 3000 BECMG 25012KT SCT030
02:00
M
12 °C 10 km+ 1.000 ft 180° 180° 19 kt METAR LFQQ 010000Z AUTO 18019KT 9999 BKN010/// OVC017/// //////TCU 12/11 Q1003 TEMPO 3000 BKN007 OVC013 BECMG 19020G33KT
01:30
M
11 °C 5 km 1.300 ft 180° 180° 17 kt METAR LFQQ 302330Z AUTO 18017KT 5000 -RA BR BKN013/// BKN019/// BKN032/// //////TCU 11/11 Q1003 TEMPO BKN007 OVC013 BECMG 19020G33KT RA
01:00
M
12 °C 10 km+ 2.200 ft 170° 170° 17 kt METAR LFQQ 302300Z AUTO 17017KT 9999 -RA FEW017/// BKN022/// BKN036/// //////TCU 12/10 Q1004 TEMPO 3000 BKN007 OVC013 BECMG 19020G33KT
00:30
V
12 °C 10 km+ 4.100 ft 180° 180° 14 kt METAR LFQQ 302230Z AUTO 18014KT 9999 -RA SCT021/// OVC041/// //////TCU 12/10 Q1004 TEMPO 3000 BKN007 OVC013 BECMG 19020G33KT
00:00
V
12 °C 8 km 4.800 ft 190° 190° 16 kt METAR LFQQ 302200Z AUTO 19016KT 8000 -RA FEW022/// SCT039/// BKN048/// //////TCU 12/10 Q1005 BECMG 19020G33KT RA BKN013 OVC030

30 de septiembre de 2022

Hora Código Tiempo Temp. Visibilidad Cielo nuboso Viento METAR/SPECI
23:30
V
12 °C 10 km+ - 180° 180° 15 kt METAR LFQQ 302130Z AUTO 18015KT 9999 -RA //////TCU 12/10 Q1006 BECMG 19020G33KT RA BKN013 OVC030
23:00
V
12 °C 10 km+ - 180° 180° 15 kt METAR LFQQ 302100Z AUTO 18015KT 9999 -RA //////TCU 12/10 Q1006 BECMG 19020G33KT RA BKN013 OVC030
22:30
V
12 °C 10 km+ - 180° 180° 12 kt METAR LFQQ 302030Z AUTO 18012KT 9999 -RA //////TCU 12/10 Q1006 BECMG 19020G33KT RA BKN013 OVC030
22:00
V
13 °C 10 km+ - 190° 190° 14 kt METAR LFQQ 302000Z AUTO 19014KT 9999 -RA //////TCU 13/09 Q1007 BECMG 19020G33KT RA BKN013 OVC030
21:30
V
13 °C 10 km+ - 200° 200° 13 kt METAR LFQQ 301930Z AUTO 20013KT 9999 -RA //////TCU 13/09 Q1007 BECMG 19020G33KT RA BKN013 OVC030
21:00
V
15 °C 10 km+ - 190° 190° 12 kt METAR LFQQ 301900Z AUTO 19012KT 9999 ///TCU 15/07 Q1007 BECMG 19020G33KT RA BKN013 OVC030
20:30
V
15 °C 10 km+ - 190° 190° 10 kt METAR LFQQ 301830Z AUTO 19010KT CAVOK 15/07 Q1008 BECMG 19020G33KT RA BKN013 OVC030
20:00
V
15 °C 10 km+ - 190° 190° 8 kt METAR LFQQ 301800Z AUTO 19008KT CAVOK 15/08 Q1008 BECMG 19020G33KT RA BKN013 OVC030
19:30
V
15 °C 10 km+ - 190° 190° 8 kt METAR LFQQ 301730Z AUTO 19008KT CAVOK 15/07 Q1008 BECMG 19020G33KT RA BKN013 OVC030
19:00
V
15 °C 10 km+ - 200° 200° 10 kt METAR LFQQ 301700Z AUTO 20010KT CAVOK 15/07 Q1008 NOSIG
18:30
V
16 °C 10 km+ 18.000 ft 210° 210° 13 kt METAR LFQQ 301630Z AUTO 21013KT 9999 FEW049 BKN180 16/06 Q1009 NOSIG
18:00
V
16 °C 10 km+ - 200° 200° 12 kt METAR LFQQ 301600Z AUTO 20012KT CAVOK 16/07 Q1009 NOSIG
17:30
V
17 °C 10 km+ - 200° 200° 14 kt METAR LFQQ 301530Z AUTO 20014KT CAVOK 17/06 Q1009 NOSIG
17:00
V
17 °C 10 km+ - 200° 200° 15 kt METAR LFQQ 301500Z AUTO 20015KT CAVOK 17/06 Q1009 NOSIG
Datos más antiguos

Nosotros y terceros seguimos tu comportamiento en Internet en nuestro sitio web con cookies. Si continúas, asumimos que estás de acuerdo con nuestra política de cookies. Más información